Eldorado, Iowa
Current Conditions -  °F | °C
As of 1:55 PM on Saturday 20 Dec 2014 (Local Time) from KDEH Reporting Station
Haze Haze  
Wind Chill: 23°   Ceiling: 600
Heat Index: 30°   Visibility: 2mi
Dew Point: 30°   Wind: 7mph
Humidity: 100%   Direction: 160°SSE
Pressure: 30.14"   Gusts: NA
Location:  43.0026°N, 91.7836°W
Report Text: KDEH 201955Z AUTO 16006KT 2SM BR OVC006 M01/M01 A3014 RMK AO2
Loading
Personal Weather Stations






























Interactive Weather Map New forecast layout! Learn more

10-Day Weather Forecast

Advertisements
Track Severe Weather on mobile